sensor_id;sensor_type;location;lat;lon;timestamp;pressure;altitude;pressure_sealevel;temperature;humidity
35806;BME280;21925;44.608;11.580;2023-04-07T00:02:10;101772.16;;;7.47;70.55
35806;BME280;21925;44.608;11.580;2023-04-07T00:04:36;101754.31;;;7.22;70.49
35806;BME280;21925;44.608;11.580;2023-04-07T00:07:02;101769.00;;;7.40;71.81
35806;BME280;21925;44.608;11.580;2023-04-07T00:09:27;101772.38;;;7.50;70.48
35806;BME280;21925;44.608;11.580;2023-04-07T00:11:53;101761.66;;;7.67;69.22
35806;BME280;21925;44.608;11.580;2023-04-07T00:14:18;101771.03;;;7.75;68.78
35806;BME280;21925;44.608;11.580;2023-04-07T00:16:44;101760.44;;;7.60;69.32
35806;BME280;21925;44.608;11.580;2023-04-07T00:19:10;101752.31;;;7.28;69.77
35806;BME280;21925;44.608;11.580;2023-04-07T00:21:35;101756.75;;;7.11;70.69
35806;BME280;21925;44.608;11.580;2023-04-07T00:24:01;101750.03;;;7.03;71.63
35806;BME280;21925;44.608;11.580;2023-04-07T00:26:26;101762.88;;;7.16;71.67
35806;BME280;21925;44.608;11.580;2023-04-07T00:28:56;101759.16;;;7.12;71.97
35806;BME280;21925;44.608;11.580;2023-04-07T00:31:22;101770.47;;;7.19;71.75
35806;BME280;21925;44.608;11.580;2023-04-07T00:33:48;101741.13;;;6.98;71.54
35806;BME280;21925;44.608;11.580;2023-04-07T00:36:14;101776.16;;;7.36;70.54
35806;BME280;21925;44.608;11.580;2023-04-07T00:38:40;101771.50;;;7.36;70.28
35806;BME280;21925;44.608;11.580;2023-04-07T00:41:05;101743.78;;;7.16;71.07
35806;BME280;21925;44.608;11.580;2023-04-07T00:43:31;101759.41;;;7.42;70.08
35806;BME280;21925;44.608;11.580;2023-04-07T00:45:57;101764.03;;;7.42;70.12
35806;BME280;21925;44.608;11.580;2023-04-07T00:48:23;101761.00;;;7.43;69.80
35806;BME280;21925;44.608;11.580;2023-04-07T00:50:49;101754.38;;;7.49;69.16
35806;BME280;21925;44.608;11.580;2023-04-07T00:53:15;101750.94;;;7.57;68.96
35806;BME280;21925;44.608;11.580;2023-04-07T00:55:40;101748.09;;;7.62;68.39
35806;BME280;21925;44.608;11.580;2023-04-07T00:58:06;101724.44;;;7.44;69.28
35806;BME280;21925;44.608;11.580;2023-04-07T01:00:37;101719.78;;;7.31;69.17
35806;BME280;21925;44.608;11.580;2023-04-07T01:03:17;101730.78;;;7.40;69.32
35806;BME280;21925;44.608;11.580;2023-04-07T01:05:54;101746.06;;;7.54;69.14
35806;BME280;21925;44.608;11.580;2023-04-07T01:08:26;101742.22;;;7.55;68.68
35806;BME280;21925;44.608;11.580;2023-04-07T01:11:12;101747.81;;;7.50;69.43
35806;BME280;21925;44.608;11.580;2023-04-07T01:13:45;101748.09;;;7.49;69.94
35806;BME280;21925;44.608;11.580;2023-04-07T01:16:37;101745.88;;;7.51;69.20
35806;BME280;21925;44.608;11.580;2023-04-07T01:19:20;101728.88;;;7.40;69.70
35806;BME280;21925;44.608;11.580;2023-04-07T01:21:55;101730.00;;;7.39;69.59
35806;BME280;21925;44.608;11.580;2023-04-07T01:24:39;101735.06;;;7.46;69.70
35806;BME280;21925;44.608;11.580;2023-04-07T01:30:00;101737.16;;;7.49;68.29
35806;BME280;21925;44.608;11.580;2023-04-07T01:32:29;101733.03;;;7.38;68.67
35806;BME280;21925;44.608;11.580;2023-04-07T01:34:56;101737.38;;;7.39;69.01
35806;BME280;21925;44.608;11.580;2023-04-07T01:37:25;101729.47;;;7.24;69.77
35806;BME280;21925;44.608;11.580;2023-04-07T01:39:52;101731.50;;;7.32;69.67
35806;BME280;21925;44.608;11.580;2023-04-07T01:42:19;101727.03;;;7.22;69.74
35806;BME280;21925;44.608;11.580;2023-04-07T01:44:47;101742.06;;;7.07;70.71
35806;BME280;21925;44.608;11.580;2023-04-07T01:47:13;101746.00;;;7.01;71.48
35806;BME280;21925;44.608;11.580;2023-04-07T01:49:40;101740.81;;;6.86;72.50
35806;BME280;21925;44.608;11.580;2023-04-07T01:52:07;101732.00;;;6.89;72.42
35806;BME280;21925;44.608;11.580;2023-04-07T01:54:33;101745.38;;;7.04;72.01
35806;BME280;21925;44.608;11.580;2023-04-07T01:56:59;101715.44;;;6.85;72.58
35806;BME280;21925;44.608;11.580;2023-04-07T01:59:26;101723.78;;;6.94;71.52
35806;BME280;21925;44.608;11.580;2023-04-07T02:01:53;101730.28;;;7.24;70.13
35806;BME280;21925;44.608;11.580;2023-04-07T02:06:53;101719.66;;;7.23;69.20
35806;BME280;21925;44.608;11.580;2023-04-07T02:09:30;101719.44;;;7.19;69.33
35806;BME280;21925;44.608;11.580;2023-04-07T02:11:59;101721.78;;;7.26;69.38
35806;BME280;21925;44.608;11.580;2023-04-07T02:14:30;101722.97;;;7.07;71.36
35806;BME280;21925;44.608;11.580;2023-04-07T02:17:04;101709.06;;;6.76;73.75
35806;BME280;21925;44.608;11.580;2023-04-07T02:19:31;101683.13;;;6.79;73.68
35806;BME280;21925;44.608;11.580;2023-04-07T02:21:59;101680.56;;;7.01;71.27
35806;BME280;21925;44.608;11.580;2023-04-07T02:24:25;101687.63;;;7.02;71.06
35806;BME280;21925;44.608;11.580;2023-04-07T02:26:51;101684.41;;;7.00;70.60
35806;BME280;21925;44.608;11.580;2023-04-07T02:29:17;101688.44;;;7.02;70.42
35806;BME280;21925;44.608;11.580;2023-04-07T02:31:42;101709.03;;;7.08;70.92
35806;BME280;21925;44.608;11.580;2023-04-07T02:34:08;101717.00;;;7.05;71.34
35806;BME280;21925;44.608;11.580;2023-04-07T02:36:33;101720.34;;;6.38;72.49
35806;BME280;21925;44.608;11.580;2023-04-07T02:38:59;101699.69;;;6.50;73.32
35806;BME280;21925;44.608;11.580;2023-04-07T02:41:24;101672.06;;;6.25;73.13
35806;BME280;21925;44.608;11.580;2023-04-07T02:43:51;101699.66;;;6.69;72.17
35806;BME280;21925;44.608;11.580;2023-04-07T02:46:17;101699.50;;;6.92;70.36
35806;BME280;21925;44.608;11.580;2023-04-07T02:48:43;101693.97;;;6.84;70.08
35806;BME280;21925;44.608;11.580;2023-04-07T02:51:08;101696.69;;;6.84;69.97
35806;BME280;21925;44.608;11.580;2023-04-07T02:53:34;101707.31;;;6.99;69.21
35806;BME280;21925;44.608;11.580;2023-04-07T02:56:00;101698.78;;;6.87;70.05
35806;BME280;21925;44.608;11.580;2023-04-07T02:58:25;101671.22;;;6.75;69.86
35806;BME280;21925;44.608;11.580;2023-04-07T03:00:51;101655.88;;;6.47;71.65
35806;BME280;21925;44.608;11.580;2023-04-07T03:03:22;101681.75;;;6.49;73.73
35806;BME280;21925;44.608;11.580;2023-04-07T03:06:11;101682.41;;;6.41;74.42
35806;BME280;21925;44.608;11.580;2023-04-07T03:08:46;101696.28;;;6.58;73.21
35806;BME280;21925;44.608;11.580;2023-04-07T03:11:12;101688.09;;;6.58;72.25
35806;BME280;21925;44.608;11.580;2023-04-07T03:13:37;101687.41;;;6.85;70.93
35806;BME280;21925;44.608;11.580;2023-04-07T03:16:03;101677.19;;;6.77;70.61
35806;BME280;21925;44.608;11.580;2023-04-07T03:18:34;101695.78;;;6.88;71.21
35806;BME280;21925;44.608;11.580;2023-04-07T03:21:00;101679.13;;;6.90;70.67
35806;BME280;21925;44.608;11.580;2023-04-07T03:23:26;101674.88;;;6.84;71.25
35806;BME280;21925;44.608;11.580;2023-04-07T03:25:55;101683.25;;;6.87;71.29
35806;BME280;21925;44.608;11.580;2023-04-07T03:28:22;101671.03;;;6.85;70.62
35806;BME280;21925;44.608;11.580;2023-04-07T03:30:47;101668.59;;;6.83;70.23
35806;BME280;21925;44.608;11.580;2023-04-07T03:33:13;101685.97;;;6.87;70.43
35806;BME280;21925;44.608;11.580;2023-04-07T03:35:38;101661.69;;;6.59;71.66
35806;BME280;21925;44.608;11.580;2023-04-07T03:38:05;101708.94;;;6.68;72.63
35806;BME280;21925;44.608;11.580;2023-04-07T03:40:30;101688.94;;;6.59;72.75
35806;BME280;21925;44.608;11.580;2023-04-07T03:42:58;101669.75;;;6.32;73.12
35806;BME280;21925;44.608;11.580;2023-04-07T03:45:23;101704.06;;;6.33;76.02
35806;BME280;21925;44.608;11.580;2023-04-07T03:47:50;101697.41;;;6.39;75.67
35806;BME280;21925;44.608;11.580;2023-04-07T03:50:19;101711.94;;;6.53;74.18
35806;BME280;21925;44.608;11.580;2023-04-07T03:53:05;101718.44;;;6.20;75.38
35806;BME280;21925;44.608;11.580;2023-04-07T03:55:32;101726.34;;;5.98;76.61
35806;BME280;21925;44.608;11.580;2023-04-07T03:58:05;101711.78;;;5.66;78.74
35806;BME280;21925;44.608;11.580;2023-04-07T04:00:33;101719.06;;;5.94;78.00
35806;BME280;21925;44.608;11.580;2023-04-07T04:03:05;101722.44;;;5.39;78.28
35806;BME280;21925;44.608;11.580;2023-04-07T04:05:33;101698.72;;;5.45;78.70
35806;BME280;21925;44.608;11.580;2023-04-07T04:07:59;101723.78;;;5.65;77.67
35806;BME280;21925;44.608;11.580;2023-04-07T04:10:25;101681.13;;;5.60;76.77
35806;BME280;21925;44.608;11.580;2023-04-07T04:12:52;101718.63;;;5.63;76.81
35806;BME280;21925;44.608;11.580;2023-04-07T04:15:18;101725.31;;;5.94;75.26
35806;BME280;21925;44.608;11.580;2023-04-07T04:17:44;101694.63;;;5.89;74.17
35806;BME280;21925;44.608;11.580;2023-04-07T04:20:11;101718.88;;;6.09;73.42
35806;BME280;21925;44.608;11.580;2023-04-07T04:22:46;101719.88;;;5.94;73.06
35806;BME280;21925;44.608;11.580;2023-04-07T04:25:12;101719.13;;;5.65;75.71
35806;BME280;21925;44.608;11.580;2023-04-07T04:27:40;101729.06;;;5.56;77.96
35806;BME280;21925;44.608;11.580;2023-04-07T04:30:15;101726.72;;;5.68;79.70
35806;BME280;21925;44.608;11.580;2023-04-07T04:32:49;101726.78;;;5.63;79.19
35806;BME280;21925;44.608;11.580;2023-04-07T04:35:18;101737.69;;;5.12;81.25
35806;BME280;21925;44.608;11.580;2023-04-07T04:37:55;101730.31;;;5.41;79.98
35806;BME280;21925;44.608;11.580;2023-04-07T04:40:21;101716.84;;;5.31;79.26
35806;BME280;21925;44.608;11.580;2023-04-07T04:42:49;101733.72;;;5.74;77.13
35806;BME280;21925;44.608;11.580;2023-04-07T04:45:15;101738.03;;;5.75;77.11
35806;BME280;21925;44.608;11.580;2023-04-07T04:47:44;101720.09;;;5.79;77.47
35806;BME280;21925;44.608;11.580;2023-04-07T04:50:10;101727.84;;;6.09;77.81
35806;BME280;21925;44.608;11.580;2023-04-07T04:52:37;101735.41;;;6.31;75.26
35806;BME280;21925;44.608;11.580;2023-04-07T04:55:07;101725.19;;;6.04;75.97
35806;BME280;21925;44.608;11.580;2023-04-07T04:57:32;101691.84;;;5.94;76.46
35806;BME280;21925;44.608;11.580;2023-04-07T05:00:02;101718.66;;;6.24;75.71
35806;BME280;21925;44.608;11.580;2023-04-07T05:02:28;101728.44;;;6.43;74.55
35806;BME280;21925;44.608;11.580;2023-04-07T05:04:55;101703.53;;;6.31;74.04
35806;BME280;21925;44.608;11.580;2023-04-07T05:07:25;101727.91;;;6.41;74.61
35806;BME280;21925;44.608;11.580;2023-04-07T05:09:51;101708.91;;;5.99;76.80
35806;BME280;21925;44.608;11.580;2023-04-07T05:12:18;101714.09;;;6.01;77.81
35806;BME280;21925;44.608;11.580;2023-04-07T05:14:48;101726.44;;;6.12;77.47
35806;BME280;21925;44.608;11.580;2023-04-07T05:17:14;101718.56;;;6.29;76.77
35806;BME280;21925;44.608;11.580;2023-04-07T05:19:40;101708.03;;;6.40;76.88
35806;BME280;21925;44.608;11.580;2023-04-07T05:22:12;101692.84;;;6.34;78.17
35806;BME280;21925;44.608;11.580;2023-04-07T05:24:43;101719.72;;;6.41;79.19
35806;BME280;21925;44.608;11.580;2023-04-07T05:27:09;101693.53;;;6.45;77.45
35806;BME280;21925;44.608;11.580;2023-04-07T05:29:36;101713.38;;;6.64;77.44
35806;BME280;21925;44.608;11.580;2023-04-07T05:32:04;101715.47;;;6.35;78.71
35806;BME280;21925;44.608;11.580;2023-04-07T05:34:30;101701.91;;;6.30;78.67
35806;BME280;21925;44.608;11.580;2023-04-07T05:36:56;101724.50;;;6.49;78.87
35806;BME280;21925;44.608;11.580;2023-04-07T05:39:22;101719.72;;;6.41;79.46
35806;BME280;21925;44.608;11.580;2023-04-07T05:41:51;101729.13;;;6.67;79.81
35806;BME280;21925;44.608;11.580;2023-04-07T05:44:18;101704.69;;;6.43;78.86
35806;BME280;21925;44.608;11.580;2023-04-07T05:46:44;101737.97;;;6.59;78.13
35806;BME280;21925;44.608;11.580;2023-04-07T05:49:10;101721.34;;;6.42;78.67
35806;BME280;21925;44.608;11.580;2023-04-07T05:51:36;101737.75;;;6.19;80.59
35806;BME280;21925;44.608;11.580;2023-04-07T05:54:08;101721.50;;;5.95;81.86
35806;BME280;21925;44.608;11.580;2023-04-07T05:56:33;101734.38;;;6.08;82.87
35806;BME280;21925;44.608;11.580;2023-04-07T05:58:59;101722.31;;;5.96;83.55
35806;BME280;21925;44.608;11.580;2023-04-07T06:01:26;101720.69;;;5.95;84.10
35806;BME280;21925;44.608;11.580;2023-04-07T06:03:52;101754.75;;;6.11;85.33
35806;BME280;21925;44.608;11.580;2023-04-07T06:06:20;101750.69;;;5.90;90.31
35806;BME280;21925;44.608;11.580;2023-04-07T06:08:46;101734.75;;;6.20;91.27
35806;BME280;21925;44.608;11.580;2023-04-07T06:11:12;101747.94;;;6.50;91.75
35806;BME280;21925;44.608;11.580;2023-04-07T06:13:37;101741.94;;;6.66;91.38
35806;BME280;21925;44.608;11.580;2023-04-07T06:16:03;101748.63;;;7.06;88.30
35806;BME280;21925;44.608;11.580;2023-04-07T06:18:29;101736.75;;;7.42;87.23
35806;BME280;21925;44.608;11.580;2023-04-07T06:20:55;101740.19;;;7.88;84.22
35806;BME280;21925;44.608;11.580;2023-04-07T06:23:20;101732.50;;;8.16;79.13
35806;BME280;21925;44.608;11.580;2023-04-07T06:25:46;101735.19;;;8.30;77.66
35806;BME280;21925;44.608;11.580;2023-04-07T06:28:16;101747.47;;;7.92;83.83
35806;BME280;21925;44.608;11.580;2023-04-07T06:30:42;101735.91;;;8.08;83.69
35806;BME280;21925;44.608;11.580;2023-04-07T06:33:10;101731.25;;;8.09;84.85
35806;BME280;21925;44.608;11.580;2023-04-07T06:35:37;101727.03;;;8.16;85.01
35806;BME280;21925;44.608;11.580;2023-04-07T06:38:03;101714.66;;;8.54;81.28
35806;BME280;21925;44.608;11.580;2023-04-07T06:40:28;101741.06;;;9.02;78.87
35806;BME280;21925;44.608;11.580;2023-04-07T06:42:54;101722.09;;;9.36;76.02
35806;BME280;21925;44.608;11.580;2023-04-07T06:45:38;101721.41;;;9.69;74.68
35806;BME280;21925;44.608;11.580;2023-04-07T06:48:04;101725.72;;;10.09;74.33
35806;BME280;21925;44.608;11.580;2023-04-07T06:50:30;101717.38;;;10.23;72.24
35806;BME280;21925;44.608;11.580;2023-04-07T06:52:55;101696.41;;;10.27;71.35
35806;BME280;21925;44.608;11.580;2023-04-07T06:55:21;101707.03;;;10.70;71.61
35806;BME280;21925;44.608;11.580;2023-04-07T06:57:46;101704.94;;;10.76;71.57
35806;BME280;21925;44.608;11.580;2023-04-07T07:00:12;101688.00;;;10.82;71.44
35806;BME280;21925;44.608;11.580;2023-04-07T07:02:37;101709.69;;;11.21;70.81
35806;BME280;21925;44.608;11.580;2023-04-07T07:05:03;101704.91;;;11.38;68.60
35806;BME280;21925;44.608;11.580;2023-04-07T07:07:29;101701.66;;;11.45;67.98
35806;BME280;21925;44.608;11.580;2023-04-07T07:09:55;101686.34;;;11.73;68.00
35806;BME280;21925;44.608;11.580;2023-04-07T07:12:20;101694.63;;;12.22;66.28
35806;BME280;21925;44.608;11.580;2023-04-07T07:14:46;101692.47;;;12.27;62.46
35806;BME280;21925;44.608;11.580;2023-04-07T07:17:12;101669.16;;;11.84;59.31
35806;BME280;21925;44.608;11.580;2023-04-07T07:19:37;101693.94;;;12.25;58.23
35806;BME280;21925;44.608;11.580;2023-04-07T07:22:03;101691.50;;;12.64;56.47
35806;BME280;21925;44.608;11.580;2023-04-07T07:24:29;101686.31;;;12.83;56.17
35806;BME280;21925;44.608;11.580;2023-04-07T07:26:58;101689.09;;;12.95;55.62
35806;BME280;21925;44.608;11.580;2023-04-07T07:29:24;101691.38;;;13.49;55.68
35806;BME280;21925;44.608;11.580;2023-04-07T07:31:50;101682.34;;;13.72;56.10
35806;BME280;21925;44.608;11.580;2023-04-07T07:34:16;101686.63;;;14.09;57.33
35806;BME280;21925;44.608;11.580;2023-04-07T07:36:41;101690.22;;;14.61;57.33
35806;BME280;21925;44.608;11.580;2023-04-07T07:39:07;101689.44;;;14.76;56.06
35806;BME280;21925;44.608;11.580;2023-04-07T07:41:32;101688.84;;;14.55;53.15
35806;BME280;21925;44.608;11.580;2023-04-07T07:43:58;101689.00;;;15.16;54.58
35806;BME280;21925;44.608;11.580;2023-04-07T07:46:23;101674.78;;;15.03;55.25
35806;BME280;21925;44.608;11.580;2023-04-07T07:48:51;101686.78;;;15.68;54.78
35806;BME280;21925;44.608;11.580;2023-04-07T07:51:17;101675.13;;;15.44;51.08
35806;BME280;21925;44.608;11.580;2023-04-07T07:53:46;101700.28;;;15.54;50.52
35806;BME280;21925;44.608;11.580;2023-04-07T07:56:12;101687.47;;;15.96;51.36
35806;BME280;21925;44.608;11.580;2023-04-07T07:58:37;101674.91;;;16.17;50.03
35806;BME280;21925;44.608;11.580;2023-04-07T08:01:03;101661.94;;;16.56;51.04
35806;BME280;21925;44.608;11.580;2023-04-07T08:03:28;101676.13;;;16.35;48.19
35806;BME280;21925;44.608;11.580;2023-04-07T08:05:54;101676.63;;;16.78;48.90
35806;BME280;21925;44.608;11.580;2023-04-07T08:08:20;101677.59;;;16.67;47.84
35806;BME280;21925;44.608;11.580;2023-04-07T08:10:45;101652.97;;;17.26;49.82
35806;BME280;21925;44.608;11.580;2023-04-07T08:13:11;101664.41;;;17.02;49.06
35806;BME280;21925;44.608;11.580;2023-04-07T08:15:38;101685.09;;;16.67;46.74
35806;BME280;21925;44.608;11.580;2023-04-07T08:18:03;101676.06;;;17.78;49.38
35806;BME280;21925;44.608;11.580;2023-04-07T08:20:31;101680.13;;;16.76;46.29
35806;BME280;21925;44.608;11.580;2023-04-07T08:22:57;101696.44;;;16.80;46.22
35806;BME280;21925;44.608;11.580;2023-04-07T08:25:22;101681.50;;;17.26;47.08
35806;BME280;21925;44.608;11.580;2023-04-07T08:27:48;101680.22;;;17.20;46.26
35806;BME280;21925;44.608;11.580;2023-04-07T08:30:14;101662.13;;;17.07;44.72
35806;BME280;21925;44.608;11.580;2023-04-07T08:32:43;101677.53;;;17.72;45.14
35806;BME280;21925;44.608;11.580;2023-04-07T08:35:10;101664.81;;;18.81;46.75
35806;BME280;21925;44.608;11.580;2023-04-07T08:37:36;101661.78;;;17.76;45.10
35806;BME280;21925;44.608;11.580;2023-04-07T08:40:02;101673.34;;;17.56;44.98
35806;BME280;21925;44.608;11.580;2023-04-07T08:42:30;101662.25;;;17.56;43.95
35806;BME280;21925;44.608;11.580;2023-04-07T08:45:00;101665.44;;;17.83;46.67
35806;BME280;21925;44.608;11.580;2023-04-07T08:47:27;101670.41;;;17.26;49.27
35806;BME280;21925;44.608;11.580;2023-04-07T08:49:56;101653.66;;;17.64;46.22
35806;BME280;21925;44.608;11.580;2023-04-07T08:52:50;101663.81;;;18.08;45.87
35806;BME280;21925;44.608;11.580;2023-04-07T08:55:15;101640.25;;;17.44;46.50
35806;BME280;21925;44.608;11.580;2023-04-07T08:57:41;101641.47;;;18.24;47.06
35806;BME280;21925;44.608;11.580;2023-04-07T09:00:08;101649.63;;;18.75;45.05
35806;BME280;21925;44.608;11.580;2023-04-07T09:02:36;101650.63;;;19.80;43.97
35806;BME280;21925;44.608;11.580;2023-04-07T09:05:04;101643.78;;;19.17;45.23
35806;BME280;21925;44.608;11.580;2023-04-07T09:07:31;101656.00;;;19.52;47.94
35806;BME280;21925;44.608;11.580;2023-04-07T09:09:58;101649.88;;;18.96;45.27
35806;BME280;21925;44.608;11.580;2023-04-07T09:12:24;101653.34;;;19.23;46.30
35806;BME280;21925;44.608;11.580;2023-04-07T09:14:50;101649.28;;;19.56;45.40
35806;BME280;21925;44.608;11.580;2023-04-07T09:17:17;101639.50;;;19.80;44.91
35806;BME280;21925;44.608;11.580;2023-04-07T09:19:42;101651.09;;;19.35;44.91
35806;BME280;21925;44.608;11.580;2023-04-07T09:22:08;101638.44;;;19.44;46.04
35806;BME280;21925;44.608;11.580;2023-04-07T09:24:36;101642.06;;;20.02;45.45
35806;BME280;21925;44.608;11.580;2023-04-07T09:27:17;101638.00;;;19.93;44.38
35806;BME280;21925;44.608;11.580;2023-04-07T09:29:45;101631.06;;;20.26;44.84
35806;BME280;21925;44.608;11.580;2023-04-07T09:32:11;101595.19;;;20.11;44.52
35806;BME280;21925;44.608;11.580;2023-04-07T09:34:39;101605.63;;;20.31;44.74
35806;BME280;21925;44.608;11.580;2023-04-07T09:37:05;101617.03;;;21.57;44.67
35806;BME280;21925;44.608;11.580;2023-04-07T09:39:32;101609.81;;;21.42;45.00
35806;BME280;21925;44.608;11.580;2023-04-07T09:41:57;101612.66;;;21.63;42.30
35806;BME280;21925;44.608;11.580;2023-04-07T09:44:24;101605.03;;;21.73;40.21
35806;BME280;21925;44.608;11.580;2023-04-07T09:46:57;101604.50;;;22.27;40.46
35806;BME280;21925;44.608;11.580;2023-04-07T09:49:24;101606.63;;;21.33;40.44
35806;BME280;21925;44.608;11.580;2023-04-07T09:51:57;101611.03;;;21.68;40.79
35806;BME280;21925;44.608;11.580;2023-04-07T09:54:38;101611.34;;;22.12;39.81
35806;BME280;21925;44.608;11.580;2023-04-07T09:57:06;101593.50;;;21.71;40.50
35806;BME280;21925;44.608;11.580;2023-04-07T09:59:34;101604.69;;;22.71;42.56
35806;BME280;21925;44.608;11.580;2023-04-07T10:02:00;101595.19;;;23.23;39.88
35806;BME280;21925;44.608;11.580;2023-04-07T10:04:26;101576.88;;;23.58;41.52
35806;BME280;21925;44.608;11.580;2023-04-07T10:06:53;101601.69;;;22.38;37.60
35806;BME280;21925;44.608;11.580;2023-04-07T10:09:24;101583.81;;;22.04;39.52
35806;BME280;21925;44.608;11.580;2023-04-07T10:11:51;101599.13;;;22.67;39.59
35806;BME280;21925;44.608;11.580;2023-04-07T10:14:22;101593.00;;;22.11;38.60
35806;BME280;21925;44.608;11.580;2023-04-07T10:16:50;101571.91;;;21.86;36.91
35806;BME280;21925;44.608;11.580;2023-04-07T10:19:17;101577.13;;;21.70;38.77
35806;BME280;21925;44.608;11.580;2023-04-07T10:21:43;101561.75;;;22.98;39.23
35806;BME280;21925;44.608;11.580;2023-04-07T10:27:19;101584.13;;;22.34;37.12
35806;BME280;21925;44.608;11.580;2023-04-07T10:29:48;101577.84;;;21.98;35.92
35806;BME280;21925;44.608;11.580;2023-04-07T10:32:14;101559.66;;;22.55;38.05
35806;BME280;21925;44.608;11.580;2023-04-07T10:37:16;101566.59;;;22.26;40.30
35806;BME280;21925;44.608;11.580;2023-04-07T10:39:47;101551.03;;;22.25;37.44
35806;BME280;21925;44.608;11.580;2023-04-07T10:45:07;101539.97;;;23.67;35.37
35806;BME280;21925;44.608;11.580;2023-04-07T10:50:23;101549.56;;;23.29;34.70
35806;BME280;21925;44.608;11.580;2023-04-07T10:53:13;101545.56;;;23.30;35.20
35806;BME280;21925;44.608;11.580;2023-04-07T10:55:40;101536.47;;;23.56;35.27
35806;BME280;21925;44.608;11.580;2023-04-07T10:58:25;101532.38;;;23.27;34.91
35806;BME280;21925;44.608;11.580;2023-04-07T11:03:23;101533.84;;;23.42;35.55
35806;BME280;21925;44.608;11.580;2023-04-07T11:05:49;101523.84;;;23.81;34.58
35806;BME280;21925;44.608;11.580;2023-04-07T11:08:14;101526.72;;;22.83;34.09
35806;BME280;21925;44.608;11.580;2023-04-07T11:10:46;101522.25;;;22.96;33.88
35806;BME280;21925;44.608;11.580;2023-04-07T11:13:12;101522.66;;;22.91;33.42
35806;BME280;21925;44.608;11.580;2023-04-07T11:15:38;101515.16;;;23.69;33.66
35806;BME280;21925;44.608;11.580;2023-04-07T11:18:14;101515.78;;;24.16;33.05
35806;BME280;21925;44.608;11.580;2023-04-07T11:20:50;101508.03;;;25.06;33.98
35806;BME280;21925;44.608;11.580;2023-04-07T11:23:18;101499.84;;;24.70;33.83
35806;BME280;21925;44.608;11.580;2023-04-07T11:25:46;101508.78;;;24.31;33.86
35806;BME280;21925;44.608;11.580;2023-04-07T11:28:13;101496.81;;;23.64;33.89
35806;BME280;21925;44.608;11.580;2023-04-07T11:30:44;101504.00;;;24.28;33.97
35806;BME280;21925;44.608;11.580;2023-04-07T11:33:14;101501.50;;;24.90;33.76
35806;BME280;21925;44.608;11.580;2023-04-07T11:35:54;101494.25;;;23.80;33.33
35806;BME280;21925;44.608;11.580;2023-04-07T11:38:25;101474.31;;;23.71;32.54
35806;BME280;21925;44.608;11.580;2023-04-07T11:40:52;101499.47;;;23.78;33.83
35806;BME280;21925;44.608;11.580;2023-04-07T11:43:22;101484.72;;;23.71;33.50
35806;BME280;21925;44.608;11.580;2023-04-07T11:46:13;101489.53;;;23.74;33.73
35806;BME280;21925;44.608;11.580;2023-04-07T11:48:41;101491.59;;;23.66;33.27
35806;BME280;21925;44.608;11.580;2023-04-07T11:51:17;101486.88;;;23.93;34.39
35806;BME280;21925;44.608;11.580;2023-04-07T11:53:44;101475.75;;;23.86;34.75
35806;BME280;21925;44.608;11.580;2023-04-07T11:56:13;101462.66;;;23.43;34.53
35806;BME280;21925;44.608;11.580;2023-04-07T11:58:53;101469.69;;;24.21;35.14
35806;BME280;21925;44.608;11.580;2023-04-07T12:01:20;101446.88;;;24.72;34.98
35806;BME280;21925;44.608;11.580;2023-04-07T12:04:02;101475.53;;;24.60;35.42
35806;BME280;21925;44.608;11.580;2023-04-07T12:09:04;101472.78;;;24.30;34.53
35806;BME280;21925;44.608;11.580;2023-04-07T12:11:31;101448.09;;;24.18;34.41
35806;BME280;21925;44.608;11.580;2023-04-07T12:13:57;101464.53;;;24.16;34.53
35806;BME280;21925;44.608;11.580;2023-04-07T12:16:23;101469.41;;;24.12;34.55
35806;BME280;21925;44.608;11.580;2023-04-07T12:18:49;101454.16;;;23.87;34.79
35806;BME280;21925;44.608;11.580;2023-04-07T12:21:18;101441.41;;;23.82;33.71
35806;BME280;21925;44.608;11.580;2023-04-07T12:23:45;101453.94;;;23.67;34.71
35806;BME280;21925;44.608;11.580;2023-04-07T12:26:12;101448.69;;;24.32;36.02
35806;BME280;21925;44.608;11.580;2023-04-07T12:28:37;101427.59;;;23.98;34.49
35806;BME280;21925;44.608;11.580;2023-04-07T12:31:03;101443.41;;;23.48;34.44
35806;BME280;21925;44.608;11.580;2023-04-07T12:33:29;101447.66;;;23.93;35.01
35806;BME280;21925;44.608;11.580;2023-04-07T12:35:56;101433.84;;;23.46;35.62
35806;BME280;21925;44.608;11.580;2023-04-07T12:38:21;101440.34;;;24.29;36.26
35806;BME280;21925;44.608;11.580;2023-04-07T12:40:47;101437.72;;;23.55;36.66
35806;BME280;21925;44.608;11.580;2023-04-07T12:43:13;101437.38;;;23.83;36.73
35806;BME280;21925;44.608;11.580;2023-04-07T12:45:38;101435.94;;;23.68;37.70
35806;BME280;21925;44.608;11.580;2023-04-07T12:48:04;101433.81;;;24.09;37.58
35806;BME280;21925;44.608;11.580;2023-04-07T12:50:30;101438.09;;;23.57;37.35
35806;BME280;21925;44.608;11.580;2023-04-07T12:52:56;101429.59;;;23.64;37.78
35806;BME280;21925;44.608;11.580;2023-04-07T12:55:23;101409.81;;;23.48;37.23
35806;BME280;21925;44.608;11.580;2023-04-07T12:57:49;101422.50;;;23.56;37.47
35806;BME280;21925;44.608;11.580;2023-04-07T13:00:15;101405.97;;;23.99;37.30
35806;BME280;21925;44.608;11.580;2023-04-07T13:02:41;101403.88;;;23.73;37.34
35806;BME280;21925;44.608;11.580;2023-04-07T13:05:08;101416.34;;;23.68;39.17
35806;BME280;21925;44.608;11.580;2023-04-07T13:07:33;101418.19;;;23.12;39.11
35806;BME280;21925;44.608;11.580;2023-04-07T13:10:01;101406.03;;;23.62;39.51
35806;BME280;21925;44.608;11.580;2023-04-07T13:12:27;101416.19;;;24.12;40.41